SAS47T ESSA-ESSV
Flight info
| Callsign | SAS47T |
|---|---|
| Flight time | N/A |
| Altitude | 19000 |
| Route | BABAP T316 GOTAL |
| Aircraft | AT76/M-SDFGIRY/S |
Departure
| Time | 2026-05-05 19:02 |
|---|---|
| Airport | Stockholm-Arlanda Airport (ESSA) |
Arrival
| Time | N/A |
|---|---|
| Airport | Visby Airport (ESSV) |
| Time | Latitude | Longitude | Altitude | Speed | Heading |
|---|---|---|---|---|---|
| 2026-05-05 18:32 | 59.65361 | 17.94317 | 125 ft | 0 kts | 301° |
| 2026-05-05 18:55 | 59.65362 | 17.94314 | 125 ft | 0 kts | 292° |
| 2026-05-05 18:55 | 59.65368 | 17.94309 | 125 ft | 3 kts | 341° |
| 2026-05-05 18:55 | 59.65406 | 17.94372 | 122 ft | 16 kts | 39° |
| 2026-05-05 18:56 | 59.65482 | 17.94363 | 122 ft | 9 kts | 359° |
| 2026-05-05 18:56 | 59.65510 | 17.94380 | 123 ft | 10 kts | 24° |
| 2026-05-05 18:56 | 59.65578 | 17.94365 | 123 ft | 13 kts | 345° |
| 2026-05-05 18:57 | 59.65648 | 17.94289 | 119 ft | 11 kts | 292° |
| 2026-05-05 18:57 | 59.65637 | 17.94132 | 118 ft | 13 kts | 256° |
| 2026-05-05 18:57 | 59.65614 | 17.93946 | 90 ft | 16 kts | 257° |
| 2026-05-05 18:57 | 59.65585 | 17.93721 | 109 ft | 17 kts | 256° |
| 2026-05-05 18:58 | 59.65557 | 17.93499 | 108 ft | 16 kts | 255° |
| 2026-05-05 18:58 | 59.65530 | 17.93285 | 107 ft | 16 kts | 255° |
| 2026-05-05 18:58 | 59.65504 | 17.93083 | 108 ft | 15 kts | 255° |
| 2026-05-05 18:58 | 59.65473 | 17.92892 | 108 ft | 14 kts | 250° |
| 2026-05-05 18:59 | 59.65436 | 17.92720 | 106 ft | 6 kts | 245° |
| 2026-05-05 18:59 | 59.65441 | 17.92623 | 106 ft | 10 kts | 307° |
| 2026-05-05 18:59 | 59.65511 | 17.92547 | 102 ft | 13 kts | 335° |
| 2026-05-05 18:59 | 59.65595 | 17.92497 | 100 ft | 13 kts | 346° |
| 2026-05-05 19:00 | 59.65679 | 17.92455 | 100 ft | 12 kts | 345° |
| 2026-05-05 19:00 | 59.65751 | 17.92422 | 101 ft | 10 kts | 352° |
| 2026-05-05 19:00 | 59.65837 | 17.92449 | 103 ft | 12 kts | 11° |
| 2026-05-05 19:00 | 59.65901 | 17.92423 | 105 ft | 7 kts | 310° |
| 2026-05-05 19:01 | 59.65923 | 17.92244 | 109 ft | 15 kts | 281° |
| 2026-05-05 19:01 | 59.65915 | 17.92119 | 109 ft | 7 kts | 218° |
| 2026-05-05 19:01 | 59.65881 | 17.92102 | 110 ft | 16 kts | 189° |
| 2026-05-05 19:01 | 59.65558 | 17.91985 | 104 ft | 77 kts | 190° |
| 2026-05-05 19:02 | 59.64845 | 17.91732 | 105 ft | 128 kts | 191° |
| 2026-05-05 19:02 | 59.63900 | 17.91411 | 447 ft | 140 kts | 186° |
| 2026-05-05 19:02 | 59.62922 | 17.91029 | 997 ft | 147 kts | 192° |
| 2026-05-05 19:02 | 59.61894 | 17.90778 | 1420 ft | 146 kts | 193° |
| 2026-05-05 19:03 | 59.60931 | 17.90439 | 1781 ft | 150 kts | 182° |
| 2026-05-05 19:03 | 59.59919 | 17.91211 | 1965 ft | 167 kts | 139° |
| 2026-05-05 19:03 | 59.59201 | 17.93041 | 2268 ft | 169 kts | 124° |
| 2026-05-05 19:03 | 59.58569 | 17.95040 | 2520 ft | 176 kts | 123° |
| 2026-05-05 19:04 | 59.57860 | 17.97074 | 2749 ft | 183 kts | 126° |
| 2026-05-05 19:04 | 59.57241 | 17.99292 | 3001 ft | 185 kts | 111° |
| 2026-05-05 19:04 | 59.56812 | 18.01658 | 3285 ft | 186 kts | 108° |
| 2026-05-05 19:04 | 59.56398 | 18.04103 | 3521 ft | 192 kts | 108° |